Time;durP1;ratioP1;P1;durP2;ratioP2;P2;SDS_P1;SDS_P2;PMS_P1;PMS_P2;Temp;Humidity;BMP_temperature;BMP_pressure;BME280_temperature;BME280_humidity;BME280_pressure;Samples;Min_cycle;Max_cycle;Signal;HPM_P1;HPM_P2
2021/07/13 00:01:51;;;;;;;12.68;11.58;;;;;;;18.48;74.27;100113.17;128170;1095;22429;-81
2021/07/13 00:04:21;;;;;;;13.60;12.40;;;;;;;18.45;74.52;100119.78;128232;1095;22361;-80
2021/07/13 00:06:51;;;;;;;14.03;12.73;;;;;;;18.43;74.57;100111.19;128266;1095;22359;-80
2021/07/13 00:09:21;;;;;;;12.73;11.38;;;;;;;18.42;74.82;100116.74;128176;1095;22360;-80
2021/07/13 00:11:51;;;;;;;12.10;10.98;;;;;;;18.40;75.16;100110.83;128198;1095;24239;-80
2021/07/13 00:14:21;;;;;;;12.28;11.08;;;;;;;18.39;75.16;100109.98;128183;1095;22458;-80
2021/07/13 00:16:50;;;;;;;12.80;11.58;;;;;;;18.38;75.09;100113.70;128177;1095;22588;-80
2021/07/13 00:19:20;;;;;;;12.95;11.78;;;;;;;18.38;75.25;100123.59;128188;1095;22378;-80
2021/07/13 00:21:50;;;;;;;12.33;11.03;;;;;;;18.39;75.06;100114.52;128182;1095;22382;-80
2021/07/13 00:24:20;;;;;;;12.85;11.65;;;;;;;18.37;75.57;100119.30;128221;1095;22647;-80
2021/07/13 00:26:50;;;;;;;12.63;11.53;;;;;;;18.37;75.66;100117.43;128219;1095;22378;-81
2021/07/13 00:29:19;;;;;;;12.55;11.25;;;;;;;18.36;75.42;100113.13;128227;1095;22383;-80
2021/07/13 00:31:49;;;;;;;12.80;10.53;;;;;;;18.34;75.44;100118.69;128225;1095;24256;-81
2021/07/13 00:34:19;;;;;;;13.45;10.58;;;;;;;18.34;75.47;100115.20;128205;1095;22815;-80
2021/07/13 00:36:48;;;;;;;12.10;10.80;;;;;;;18.33;75.85;100113.58;128221;1095;24259;-80
2021/07/13 00:39:18;;;;;;;12.50;11.05;;;;;;;18.31;75.61;100118.32;128233;1095;23125;-79
2021/07/13 00:41:47;;;;;;;12.18;11.03;;;;;;;18.27;75.67;100101.91;128239;1095;22378;-80
2021/07/13 00:44:19;;;;;;;13.95;11.08;;;;;;;18.25;75.73;100106.66;128217;1095;22359;-80
2021/07/13 00:46:49;;;;;;;;;;;;;;;18.14;75.27;100112.77;128279;1095;22356;-80
2021/07/13 00:49:19;;;;;;;13.13;10.90;;;;;;;18.09;76.00;100115.27;128220;1095;21260;-79
2021/07/13 00:51:48;;;;;;;12.75;11.45;;;;;;;18.12;75.89;100114.83;128211;1095;22357;-79
2021/07/13 00:54:20;;;;;;;12.25;11.15;;;;;;;18.13;76.21;100131.67;128214;1095;23105;-80
2021/07/13 00:56:52;;;;;;;11.85;10.70;;;;;;;18.08;75.98;100116.31;128315;1095;22372;-80
2021/07/13 00:59:22;;;;;;;12.35;11.25;;;;;;;18.05;76.23;100125.59;128197;1095;22375;-79
2021/07/13 01:01:51;;;;;;;16.43;11.55;;;;;;;18.04;75.70;100128.50;128249;1095;22388;-79
2021/07/13 01:04:22;;;;;;;13.15;11.80;;;;;;;18.04;76.11;100123.16;128241;1095;22365;-80
2021/07/13 01:07:11;;;;;;;11.60;10.50;;;;;;;18.04;76.16;100123.16;128211;1095;24953;-79
2021/07/13 01:10:07;;;;;;;12.40;11.30;;;;;;;18.01;76.00;100121.73;128290;1095;24166;-80
2021/07/13 01:13:02;;;;;;;19.25;14.10;;;;;;;18.00;76.09;100113.95;128307;1095;22357;-79
2021/07/13 01:15:47;;;;;;;14.75;13.15;;;;;;;17.97;76.16;100117.88;128009;1098;22443;-80
2021/07/13 01:18:24;;;;;;;14.93;13.28;;;;;;;17.95;76.23;100114.60;127932;1098;24516;-81
2021/07/13 01:21:54;;;;;;;13.90;12.65;;;;;;;17.96;76.26;100120.76;127990;1098;23118;-79
2021/07/13 01:24:53;;;;;;;15.93;14.40;;;;;;;17.91;76.42;100123.30;128003;1098;24195;-80
2021/07/13 01:27:50;;;;;;;19.58;13.08;;;;;;;17.91;76.42;100117.95;127965;1098;22364;-80
2021/07/13 01:30:31;;;;;;;16.73;14.83;;;;;;;17.91;76.48;100124.11;127943;1098;22354;-79
2021/07/13 01:33:17;;;;;;;15.98;14.00;;;;;;;17.92;76.40;100117.72;127932;1098;22356;-79
2021/07/13 01:36:14;;;;;;;14.83;13.43;;;;;;;17.88;76.42;100121.88;127968;1098;22353;-80
2021/07/13 01:38:46;;;;;;;14.73;13.33;;;;;;;17.79;76.15;100110.67;127942;1098;22353;-80
2021/07/13 01:41:22;;;;;;;15.35;13.85;;;;;;;17.77;76.43;100117.27;127962;1098;22498;-80
2021/07/13 01:43:52;;;;;;;18.20;13.33;;;;;;;17.75;76.39;100119.30;127968;1101;22359;-80
2021/07/13 01:46:23;;;;;;;16.10;14.03;;;;;;;17.76;76.18;100115.58;127924;1101;22356;-79
2021/07/13 01:48:56;;;;;;;16.20;14.43;;;;;;;17.75;76.46;100125.45;127538;1101;22369;-79
2021/07/13 01:51:27;;;;;;;13.85;12.45;;;;;;;17.74;76.47;100123.83;127430;1101;24520;-79
2021/07/13 01:54:07;;;;;;;13.40;12.25;;;;;;;17.75;76.31;100119.30;127816;1101;23169;-79
2021/07/13 01:56:37;;;;;;;14.15;12.80;;;;;;;17.77;76.48;100122.61;127980;1101;22452;-79
2021/07/13 01:59:14;;;;;;;16.77;14.03;;;;;;;17.79;76.28;100126.70;127905;1100;22428;-78
2021/07/13 02:01:46;;;;;;;16.18;14.58;;;;;;;17.79;76.32;100128.53;127923;1098;24537;-79
2021/07/13 02:04:18;;;;;;;16.68;14.98;;;;;;;17.77;76.36;100128.77;128001;1098;22388;-78
2021/07/13 02:06:48;;;;;;;17.50;15.87;;;;;;;17.77;75.99;100122.61;128213;1095;24534;-78
2021/07/13 02:09:17;;;;;;;17.30;15.43;;;;;;;17.79;76.83;100117.84;128167;1095;22421;-79
2021/07/13 02:11:48;;;;;;;16.75;15.15;;;;;;;17.82;76.23;100120.08;128160;1095;24498;-79
2021/07/13 02:14:18;;;;;;;18.53;14.85;;;;;;;17.83;76.24;100117.20;128237;1095;22356;-81
2021/07/13 02:16:49;;;;;;;15.38;13.93;;;;;;;17.78;75.91;100118.89;128193;1095;22360;-80
2021/07/13 02:19:18;;;;;;;18.43;14.68;;;;;;;17.73;75.88;100108.85;128215;1095;23176;-80
2021/07/13 02:21:49;;;;;;;16.63;14.93;;;;;;;17.72;75.93;100099.18;128230;1095;22802;-79
2021/07/13 02:24:19;;;;;;;17.50;14.60;;;;;;;17.71;76.11;100097.55;128169;1095;23070;-79
2021/07/13 02:26:59;;;;;;;15.23;13.40;;;;;;;17.68;75.98;100092.66;128194;1095;24186;-80
2021/07/13 02:29:58;;;;;;;15.73;14.08;;;;;;;17.63;76.06;100095.19;128225;1095;22382;-80
2021/07/13 02:32:46;;;;;;;16.38;14.33;;;;;;;17.63;76.00;100085.31;127989;1098;22353;-80
2021/07/13 02:35:20;;;;;;;16.73;14.05;;;;;;;17.66;76.38;100094.75;128006;1098;22372;-81
2021/07/13 02:37:50;;;;;;;20.55;17.85;;;;;;;17.67;76.33;100091.03;127907;1098;22354;-79
2021/07/13 02:40:20;;;;;;;18.83;17.13;;;;;;;17.65;76.05;100085.89;127938;1098;22402;-80
2021/07/13 02:42:50;;;;;;;18.13;15.58;;;;;;;17.69;76.19;100093.46;127974;1098;24342;-79
2021/07/13 02:45:22;;;;;;;16.53;14.37;;;;;;;17.70;76.21;100097.79;127920;1098;22356;-80
2021/07/13 02:47:54;;;;;;;15.73;13.65;;;;;;;17.70;75.85;100108.48;127931;1098;22351;-81
2021/07/13 02:50:25;;;;;;;16.60;13.85;;;;;;;17.63;75.94;100104.01;127918;1098;22374;-79
2021/07/13 02:52:55;;;;;;;19.60;16.98;;;;;;;17.59;76.06;100102.82;127938;1098;22363;-80
2021/07/13 02:55:26;;;;;;;19.45;16.33;;;;;;;17.58;75.99;100090.48;127946;1098;22349;-80
2021/07/13 02:57:57;;;;;;;19.67;15.93;;;;;;;17.60;76.18;100106.30;127923;1098;24769;-79
2021/07/13 03:00:27;;;;;;;22.63;16.50;;;;;;;17.60;76.13;100106.30;127942;1098;22350;-79
2021/07/13 03:02:57;;;;;;;21.35;15.93;;;;;;;17.59;76.04;100104.65;127939;1098;22353;-79
2021/07/13 03:05:27;;;;;;;17.25;15.65;;;;;;;17.58;76.66;100108.36;127937;1098;22342;-79
2021/07/13 03:07:59;;;;;;;19.23;16.58;;;;;;;17.55;75.97;100109.61;127970;1098;25021;-79
2021/07/13 03:10:31;;;;;;;17.45;15.60;;;;;;;17.55;76.26;100122.16;128157;1095;22375;-79
2021/07/13 03:13:01;;;;;;;20.78;15.85;;;;;;;17.56;76.12;100121.11;128191;1095;22376;-80
2021/07/13 03:15:31;;;;;;;16.70;15.13;;;;;;;17.55;76.20;100116.81;128184;1095;22363;-80
2021/07/13 03:18:01;;;;;;;17.28;15.75;;;;;;;17.58;76.25;100111.84;128187;1095;22376;-79
2021/07/13 03:20:33;;;;;;;25.50;17.03;;;;;;;17.62;76.41;100113.03;128280;1095;22356;-80
2021/07/13 03:23:04;;;;;;;28.35;15.53;;;;;;;17.62;76.34;100115.70;128260;1095;22360;-79
2021/07/13 03:25:37;;;;;;;23.83;16.03;;;;;;;17.62;76.02;100113.03;128207;1095;24236;-79
2021/07/13 03:28:10;;;;;;;21.15;17.58;;;;;;;17.61;75.92;100113.27;128190;1095;24539;-79
2021/07/13 03:30:41;;;;;;;21.73;17.35;;;;;;;17.63;76.22;100119.22;128186;1095;22376;-79
2021/07/13 03:33:13;;;;;;;28.60;17.90;;;;;;;17.65;76.22;100117.13;128231;1095;22368;-79
2021/07/13 03:35:43;;;;;;;23.98;18.40;;;;;;;17.68;76.32;100113.21;128254;1095;22351;-80
2021/07/13 03:38:16;;;;;;;18.08;16.03;;;;;;;17.71;76.00;100112.77;128150;1095;22375;-79
2021/07/13 03:40:48;;;;;;;17.00;15.17;;;;;;;17.71;75.91;100105.57;128252;1095;22356;-79
2021/07/13 03:43:18;;;;;;;20.30;18.15;;;;;;;17.74;76.17;100107.80;128281;1095;23103;-80
2021/07/13 03:45:50;;;;;;;21.35;16.85;;;;;;;17.77;76.31;100110.07;128196;1095;24580;-79
2021/07/13 03:48:20;;;;;;;;;;;;;;;17.73;75.79;100111.52;128235;1098;24579;-80
2021/07/13 03:50:50;;;;;;;19.33;14.73;;;;;;;17.68;76.41;100106.01;128235;1095;22984;-80
2021/07/13 03:53:19;;;;;;;19.45;17.23;;;;;;;17.70;76.29;100100.46;128180;1098;22404;-80
2021/07/13 03:55:49;;;;;;;17.90;14.55;;;;;;;17.73;76.04;100095.49;128183;1095;23136;-80
2021/07/13 03:58:19;;;;;;;16.40;13.40;;;;;;;17.78;76.26;100098.33;128203;1095;22378;-80
2021/07/13 04:00:48;;;;;;;14.45;11.53;;;;;;;17.82;76.04;100104.86;128246;1095;22808;-80
2021/07/13 04:03:17;;;;;;;14.23;11.70;;;;;;;17.84;76.24;100097.45;128211;1095;22360;-80
2021/07/13 04:05:47;;;;;;;20.52;13.10;;;;;;;17.91;76.25;100101.92;128231;1095;22686;-80
2021/07/13 04:08:17;;;;;;;16.23;10.93;;;;;;;17.98;76.30;100114.16;128208;1095;22375;-79
2021/07/13 04:10:46;;;;;;;17.35;12.23;;;;;;;18.05;75.98;100109.55;128221;1095;22362;-79
2021/07/13 04:13:16;;;;;;;16.95;12.10;;;;;;;18.14;75.90;100106.60;128196;1095;24534;-79
2021/07/13 04:15:46;;;;;;;14.93;12.10;;;;;;;18.18;75.93;100100.58;128212;1095;22363;-79
2021/07/13 04:18:15;;;;;;;19.88;12.85;;;;;;;18.25;75.66;100111.19;128212;1095;22429;-79
2021/07/13 04:20:45;;;;;;;17.53;11.68;;;;;;;18.31;75.65;100108.44;127921;1098;22382;-79
2021/07/13 04:23:14;;;;;;;20.40;12.53;;;;;;;18.38;75.79;100112.89;127904;1101;24721;-80
2021/07/13 04:25:45;;;;;;;15.38;11.95;;;;;;;18.43;75.15;100115.72;127899;1101;24275;-80
2021/07/13 04:28:14;;;;;;;15.50;11.98;;;;;;;18.49;75.43;100118.31;127915;1101;22395;-79
2021/07/13 04:30:44;;;;;;;21.45;11.75;;;;;;;18.59;75.48;100120.42;127466;1101;24257;-80
2021/07/13 04:33:13;;;;;;;16.03;11.38;;;;;;;18.67;75.29;100120.13;127515;1101;22458;-79
2021/07/13 04:35:43;;;;;;;16.05;11.15;;;;;;;18.78;75.17;100124.73;127867;1101;22466;-78
2021/07/13 04:38:12;;;;;;;15.00;11.20;;;;;;;18.89;75.20;100120.45;127915;1098;24340;-80
2021/07/13 04:40:42;;;;;;;13.28;11.88;;;;;;;19.00;74.96;100110.85;127917;1098;22636;-80
2021/07/13 04:43:12;;;;;;;22.65;16.48;;;;;;;19.09;74.81;100117.48;128145;1098;22394;-79
2021/07/13 04:45:41;;;;;;;17.43;13.05;;;;;;;19.19;74.56;100119.60;128190;1098;22363;-81
2021/07/13 04:48:11;;;;;;;19.48;12.65;;;;;;;19.30;74.22;100102.76;128171;1096;22463;-80
2021/07/13 04:50:40;;;;;;;14.58;11.05;;;;;;;19.42;74.10;100086.68;128258;1095;22360;-78
2021/07/13 04:53:10;;;;;;;15.03;10.40;;;;;;;19.54;73.83;100090.19;128241;1095;22819;-78
2021/07/13 04:55:40;;;;;;;16.10;9.55;;;;;;;19.62;73.80;100092.50;128246;1095;22510;-78
2021/07/13 04:58:09;;;;;;;12.08;9.38;;;;;;;19.76;73.59;100093.14;127917;1101;24336;-79
2021/07/13 05:00:39;;;;;;;12.58;9.13;;;;;;;19.86;73.47;100093.36;127962;1097;22405;-79
2021/07/13 05:03:08;;;;;;;11.18;8.70;;;;;;;19.96;73.03;100090.89;127927;1098;22382;-79
2021/07/13 05:05:42;;;;;;;12.70;9.33;;;;;;;20.08;72.61;100092.73;127930;1098;22401;-79
2021/07/13 05:08:12;;;;;;;15.45;9.48;;;;;;;20.23;72.67;100090.38;127946;1098;22391;-79
2021/07/13 05:10:41;;;;;;;11.35;8.48;;;;;;;20.38;71.34;100095.20;127948;1098;24225;-79
2021/07/13 05:13:11;;;;;;;9.50;7.13;;;;;;;20.44;70.80;100087.02;127927;1098;22412;-78
2021/07/13 05:15:41;;;;;;;9.43;7.85;;;;;;;20.50;70.53;100087.94;127925;1098;22391;-79
2021/07/13 05:18:12;;;;;;;18.15;7.35;;;;;;;20.59;70.23;100102.64;128175;1098;22374;-80
2021/07/13 05:20:50;;;;;;;7.88;7.23;;;;;;;20.63;69.48;100090.38;128230;1098;22401;-81
2021/07/13 05:23:20;;;;;;;8.95;7.93;;;;;;;20.67;69.04;100096.88;128225;1098;22376;-81
2021/07/13 05:25:49;;;;;;;12.95;8.43;;;;;;;20.68;69.14;100093.13;128215;1098;22366;-80
2021/07/13 05:28:19;;;;;;;11.60;8.15;;;;;;;20.78;68.95;100091.69;128177;1098;22825;-80
2021/07/13 05:30:49;;;;;;;10.25;8.18;;;;;;;20.92;68.84;100082.27;128217;1098;22363;-80
2021/07/13 05:33:18;;;;;;;8.40;7.55;;;;;;;21.08;68.67;100081.47;128214;1098;22358;-80
2021/07/13 05:35:48;;;;;;;10.78;8.83;;;;;;;21.24;68.00;100077.17;128305;1098;23151;-80
2021/07/13 05:38:18;;;;;;;9.40;7.40;;;;;;;21.41;67.47;100087.94;128172;1098;22366;-80
2021/07/13 05:40:47;;;;;;;9.43;7.78;;;;;;;21.59;66.73;100093.06;128187;1098;22365;-76
2021/07/13 05:43:17;;;;;;;9.13;7.53;;;;;;;21.71;66.88;100078.70;128489;1098;22384;-80
2021/07/13 05:45:47;;;;;;;9.73;8.05;;;;;;;21.95;66.48;100080.09;127993;1098;22379;-78
2021/07/13 05:48:16;;;;;;;9.63;7.73;;;;;;;22.31;66.70;100081.37;128197;1097;22386;-79
2021/07/13 05:50:46;;;;;;;6.80;6.20;;;;;;;22.67;65.48;100072.88;128258;1098;23142;-78
2021/07/13 05:53:16;;;;;;;7.38;6.40;;;;;;;23.00;63.92;100072.67;128125;1098;22362;-79
2021/07/13 05:55:47;;;;;;;11.10;7.20;;;;;;;23.32;63.27;100071.82;128029;1096;22376;-79
2021/07/13 05:58:20;;;;;;;8.98;6.13;;;;;;;23.61;62.01;100077.68;128013;1098;22363;-77
2021/07/13 06:00:50;;;;;;;9.13;6.30;;;;;;;23.94;61.14;100071.14;128137;1098;22398;-78
2021/07/13 06:03:20;;;;;;;10.85;6.18;;;;;;;24.28;60.29;100073.42;128058;1098;24545;-78
2021/07/13 06:05:49;;;;;;;7.65;5.80;;;;;;;24.66;59.27;100076.81;128217;1095;22382;-80
2021/07/13 06:08:19;;;;;;;9.30;5.80;;;;;;;24.99;58.16;100075.48;128203;1098;24506;-78
2021/07/13 06:10:49;;;;;;;7.73;6.77;;;;;;;25.24;56.69;100069.28;128231;1095;22382;-78
2021/07/13 06:13:18;;;;;;;9.63;6.43;;;;;;;25.64;56.50;100073.00;128180;1095;22363;-78
2021/07/13 06:15:48;;;;;;;8.43;5.23;;;;;;;25.96;54.84;100075.38;128225;1095;22400;-79
2021/07/13 06:18:21;;;;;;;6.65;5.18;;;;;;;25.96;54.02;100085.40;128201;1098;22372;-78
2021/07/13 06:20:51;;;;;;;6.80;5.25;;;;;;;26.09;54.02;100065.86;127958;1098;23890;-78
2021/07/13 06:23:20;;;;;;;9.73;5.30;;;;;;;26.37;53.43;100074.38;127996;1098;24265;-79
2021/07/13 06:25:50;;;;;;;7.08;5.15;;;;;;;26.73;52.56;100067.67;127992;1098;22352;-79
2021/07/13 06:28:20;;;;;;;8.05;4.30;;;;;;;26.94;50.76;100068.32;128192;1098;22369;-79
2021/07/13 06:30:49;;;;;;;5.25;4.25;;;;;;;27.17;50.09;100076.84;128006;1098;22379;-79
2021/07/13 06:33:19;;;;;;;8.08;4.30;;;;;;;27.28;48.73;100075.65;128021;1098;22372;-77
2021/07/13 06:35:48;;;;;;;7.58;4.45;;;;;;;27.18;48.63;100064.89;128199;1098;23138;-78
2021/07/13 06:38:18;;;;;;;7.00;5.20;;;;;;;27.19;48.64;100063.80;128261;1095;22470;-77
2021/07/13 06:40:47;;;;;;;5.10;4.70;;;;;;;27.34;48.02;100068.28;128189;1095;23213;-77
2021/07/13 06:43:17;;;;;;;5.98;5.00;;;;;;;27.41;47.71;100061.41;128209;1095;22383;-77
2021/07/13 06:45:46;;;;;;;6.45;4.70;;;;;;;27.61;47.32;100056.88;128301;1095;22402;-77
2021/07/13 06:48:16;;;;;;;11.20;4.43;;;;;;;27.84;46.95;100061.52;128317;1095;22377;-77
2021/07/13 06:50:46;;;;;;;5.10;4.10;;;;;;;27.91;45.71;100053.83;128233;1095;22404;-77
2021/07/13 06:53:15;;;;;;;6.43;4.00;;;;;;;28.10;45.95;100053.88;128288;1095;24518;-77
2021/07/13 06:55:45;;;;;;;7.88;4.13;;;;;;;28.24;45.02;100058.59;128227;1095;22371;-78
2021/07/13 06:58:15;;;;;;;10.37;4.33;;;;;;;27.95;44.88;100047.83;128226;1095;22353;-77
2021/07/13 07:00:45;;;;;;;6.85;4.95;;;;;;;27.85;45.47;100054.19;128215;1095;24226;-77
2021/07/13 07:03:15;;;;;;;7.73;3.95;;;;;;;28.02;45.14;100051.80;128234;1098;22359;-78
2021/07/13 07:05:44;;;;;;;5.00;4.00;;;;;;;28.23;44.41;100046.13;128205;1098;24224;-77
2021/07/13 07:08:13;;;;;;;5.80;4.83;;;;;;;28.42;44.12;100051.56;128201;1098;22372;-74
2021/07/13 07:10:43;;;;;;;4.68;3.68;;;;;;;28.56;44.11;100047.03;128178;1097;22358;-74
2021/07/13 07:13:12;;;;;;;8.05;3.45;;;;;;;28.61;43.39;100036.88;128179;1095;23725;-77
2021/07/13 07:15:42;;;;;;;5.33;4.78;;;;;;;28.56;43.92;100038.88;128204;1095;22353;-74
2021/07/13 07:18:12;;;;;;;5.33;4.03;;;;;;;28.72;43.97;100036.70;128185;1095;22458;-74
2021/07/13 07:20:42;;;;;;;7.47;4.17;;;;;;;28.71;43.80;100008.73;128223;1095;22387;-75
2021/07/13 07:23:11;;;;;;;4.55;4.15;;;;;;;28.57;43.92;100024.98;128180;1095;22350;-75
2021/07/13 07:25:41;;;;;;;5.53;4.03;;;;;;;28.29;44.20;100023.19;128203;1095;24966;-75
2021/07/13 07:28:13;;;;;;;8.80;6.08;;;;;;;28.29;44.86;100015.05;128525;1095;22356;-75
2021/07/13 07:30:43;;;;;;;6.83;4.48;;;;;;;28.40;44.32;100023.91;128552;1095;22344;-75
2021/07/13 07:33:13;;;;;;;7.00;4.93;;;;;;;28.38;44.40;100022.23;128371;1095;24243;-76
2021/07/13 07:35:43;;;;;;;5.73;4.83;;;;;;;28.41;44.33;100020.08;128520;1095;22350;-75
2021/07/13 07:38:13;;;;;;;5.20;4.70;;;;;;;28.58;44.62;100013.00;128606;1095;22369;-76
2021/07/13 07:40:44;;;;;;;8.15;5.13;;;;;;;28.83;44.45;100010.99;128494;1095;23107;-77
2021/07/13 07:43:14;;;;;;;6.15;4.73;;;;;;;29.06;44.25;100003.83;128405;1095;22732;-76
2021/07/13 07:45:44;;;;;;;6.53;5.00;;;;;;;29.35;43.74;100014.43;128505;1095;22818;-77
2021/07/13 07:48:13;;;;;;;5.43;4.93;;;;;;;29.46;42.94;100018.59;128414;1095;24288;-76
2021/07/13 07:50:43;;;;;;;9.27;5.20;;;;;;;29.46;42.65;100012.34;128425;1098;22353;-76
2021/07/13 07:53:12;;;;;;;6.63;4.65;;;;;;;29.55;43.19;100005.06;128565;1095;22353;-75
2021/07/13 07:55:43;;;;;;;12.83;5.00;;;;;;;29.80;42.96;100008.42;128475;1095;22814;-76
2021/07/13 07:58:13;;;;;;;6.95;5.03;;;;;;;29.88;42.16;100010.42;128902;1095;22369;-76
2021/07/13 08:00:43;;;;;;;4.95;4.53;;;;;;;29.86;42.21;100004.49;128655;1095;22362;-76
2021/07/13 08:03:13;;;;;;;6.00;4.90;;;;;;;29.91;41.99;100001.64;128726;1095;23402;-76
2021/07/13 08:05:43;;;;;;;6.15;3.88;;;;;;;29.99;41.86;100009.08;128482;1095;23279;-75
2021/07/13 08:08:12;;;;;;;5.03;4.43;;;;;;;29.90;41.49;99998.12;128402;1095;22404;-75
2021/07/13 08:10:44;;;;;;;5.03;4.50;;;;;;;29.76;42.28;100009.03;128238;1095;22382;-75
2021/07/13 08:13:14;;;;;;;6.10;4.58;;;;;;;29.81;41.85;100010.83;128245;1095;22366;-74
2021/07/13 08:15:44;;;;;;;13.65;5.00;;;;;;;29.87;41.80;100006.89;128112;1098;23135;-75
2021/07/13 08:18:13;;;;;;;8.70;5.13;;;;;;;30.12;42.38;100007.44;128258;1095;22366;-75
2021/07/13 08:20:43;;;;;;;4.48;4.08;;;;;;;30.43;41.94;100015.77;128163;1095;22394;-76
2021/07/13 08:23:13;;;;;;;10.10;4.93;;;;;;;30.51;41.08;100011.49;128234;1095;22366;-75
2021/07/13 08:25:42;;;;;;;6.53;5.88;;;;;;;30.52;41.48;100015.82;128252;1095;22349;-74
2021/07/13 08:28:12;;;;;;;10.00;4.93;;;;;;;30.50;41.33;100013.42;128261;1095;25784;-76
2021/07/13 08:30:41;;;;;;;8.05;4.65;;;;;;;30.42;41.35;100012.25;128219;1095;22363;-75
2021/07/13 08:33:11;;;;;;;8.33;4.80;;;;;;;30.42;41.24;99995.89;128249;1095;22373;-76
2021/07/13 08:35:41;;;;;;;6.70;5.18;;;;;;;30.16;41.25;100000.29;128205;1095;22362;-75
2021/07/13 08:38:11;;;;;;;5.40;4.90;;;;;;;29.88;42.21;99985.91;128236;1095;24600;-75
2021/07/13 08:40:41;;;;;;;6.28;5.03;;;;;;;29.93;42.25;99989.34;128258;1095;22841;-75
2021/07/13 08:43:11;;;;;;;5.33;4.90;;;;;;;30.08;42.16;99990.91;128278;1095;22872;-74
2021/07/13 08:45:42;;;;;;;6.30;5.10;;;;;;;30.18;41.90;99979.81;128226;1095;22365;-75
2021/07/13 08:48:13;;;;;;;8.13;4.80;;;;;;;30.27;42.01;99984.54;128843;1095;22378;-76
2021/07/13 08:50:43;;;;;;;7.70;5.95;;;;;;;30.43;42.14;99988.52;128462;1095;29177;-74
2021/07/13 08:53:13;;;;;;;9.30;4.60;;;;;;;30.58;41.68;99979.16;128489;1095;22385;-75
2021/07/13 08:55:43;;;;;;;6.30;5.08;;;;;;;30.80;41.87;99981.90;129522;1093;22428;-75
2021/07/13 08:58:15;;;;;;;6.53;5.35;;;;;;;31.04;41.30;99989.73;128517;1095;22352;-76
2021/07/13 09:00:44;;;;;;;;;;;;;;;31.21;40.90;99980.81;129123;1095;24530;-75
2021/07/13 09:03:19;;;;;;;7.18;5.15;;;;;;;31.23;40.67;99973.13;128751;1095;22470;-75
2021/07/13 09:05:58;;;;;;;8.40;5.80;;;;;;;31.38;40.44;99977.38;128506;1095;24529;-74
2021/07/13 09:08:31;;;;;;;5.08;4.68;;;;;;;31.37;39.68;99983.97;129133;1095;22262;-76
2021/07/13 09:11:13;;;;;;;5.30;4.80;;;;;;;31.12;39.88;99983.52;129447;1095;22900;-76
2021/07/13 09:13:58;;;;;;;6.33;4.60;;;;;;;31.04;40.63;99976.09;128801;1095;22353;-74
2021/07/13 09:16:33;;;;;;;5.33;4.93;;;;;;;31.14;40.43;99977.73;128768;1095;24968;-77
2021/07/13 09:19:03;;;;;;;9.88;6.60;;;;;;;31.04;39.95;99980.74;128258;1095;22372;-75
2021/07/13 09:21:35;;;;;;;6.30;5.15;;;;;;;31.10;39.96;99979.49;128209;1095;24249;-76
2021/07/13 09:24:17;;;;;;;7.80;5.20;;;;;;;31.04;39.65;99969.83;128257;1095;22356;-76
2021/07/13 09:27:00;;;;;;;6.75;4.70;;;;;;;31.09;40.28;99977.86;128274;1095;22360;-75
2021/07/13 09:29:41;;;;;;;7.63;4.85;;;;;;;31.21;40.05;99961.72;128369;1095;22372;-76
2021/07/13 09:32:16;;;;;;;;;;;;;;;31.33;39.37;99969.34;128239;1095;22375;-76
2021/07/13 09:34:59;;;;;;;7.65;4.80;;;;;;;31.41;39.90;99969.36;128259;1095;21276;-76
2021/07/13 09:37:35;;;;;;;8.68;4.78;;;;;;;31.61;40.09;99964.44;128202;1095;22353;-75
2021/07/13 09:40:17;;;;;;;6.43;4.88;;;;;;;31.83;39.11;99967.06;128284;1095;22888;-76
2021/07/13 09:42:55;;;;;;;5.70;4.40;;;;;;;31.71;38.84;99961.41;128224;1095;22356;-77
2021/07/13 09:45:33;;;;;;;7.00;5.58;;;;;;;31.66;38.71;99977.95;128253;1095;22372;-76
2021/07/13 09:48:12;;;;;;;7.05;5.00;;;;;;;31.44;38.80;99967.13;128320;1095;22355;-76
2021/07/13 09:50:49;;;;;;;6.50;4.90;;;;;;;31.37;38.91;99973.05;128243;1095;24508;-76
2021/07/13 09:53:22;;;;;;;9.70;5.50;;;;;;;31.48;39.38;99957.98;128218;1094;22376;-75
2021/07/13 09:55:56;;;;;;;5.93;5.43;;;;;;;31.60;38.42;99957.38;128275;1095;22360;-75
2021/07/13 09:58:26;;;;;;;8.35;4.88;;;;;;;31.59;38.08;99959.31;128266;1095;22398;-76
2021/07/13 10:01:00;;;;;;;11.20;7.70;;;;;;;31.58;38.78;99959.61;128351;1095;22363;-76
2021/07/13 10:03:30;;;;;;;7.93;6.13;;;;;;;31.51;38.43;99962.80;128247;1095;22359;-76
2021/07/13 10:06:01;;;;;;;5.73;5.05;;;;;;;31.25;39.06;99964.61;128187;1095;22404;-74
2021/07/13 10:08:31;;;;;;;10.38;4.93;;;;;;;31.07;38.81;99966.48;128235;1095;22815;-75
2021/07/13 10:11:01;;;;;;;7.43;5.13;;;;;;;30.78;39.67;99962.31;128220;1095;22817;-76
2021/07/13 10:13:33;;;;;;;11.15;5.85;;;;;;;30.63;40.05;99951.78;128230;1095;22391;-74
2021/07/13 10:16:03;;;;;;;7.15;6.55;;;;;;;30.74;39.86;99961.30;128213;1095;22362;-79
2021/07/13 10:18:32;;;;;;;8.45;5.45;;;;;;;30.80;39.86;99951.91;128256;1098;22373;-76
2021/07/13 10:21:02;;;;;;;10.85;6.70;;;;;;;30.66;39.68;99951.96;128137;1098;22361;-77
2021/07/13 10:23:32;;;;;;;6.35;5.73;;;;;;;30.33;40.05;99948.69;128001;1098;22374;-76
2021/07/13 10:26:02;;;;;;;10.03;6.30;;;;;;;30.18;40.69;99954.45;128035;1098;24916;-76
2021/07/13 10:28:34;;;;;;;7.30;6.57;;;;;;;30.17;40.88;99952.86;128177;1097;22305;-76
2021/07/13 10:31:04;;;;;;;6.38;5.75;;;;;;;29.99;40.79;99949.99;128183;1098;22360;-76
2021/07/13 10:33:39;;;;;;;6.93;6.28;;;;;;;29.61;41.47;99943.20;128173;1098;22348;-76
2021/07/13 10:36:33;;;;;;;7.35;6.53;;;;;;;29.41;42.14;99939.77;128180;1095;22376;-76
2021/07/13 10:39:28;;;;;;;7.40;6.63;;;;;;;29.53;42.63;99941.98;128276;1095;24508;-76
2021/07/13 10:42:02;;;;;;;8.90;5.40;;;;;;;29.62;42.39;99940.17;128292;1095;22370;-77
2021/07/13 10:44:47;;;;;;;6.73;5.70;;;;;;;29.60;42.25;99949.77;128278;1095;22711;-77
2021/07/13 10:47:26;;;;;;;6.38;5.75;;;;;;;29.40;42.56;99942.80;128249;1095;22382;-77
2021/07/13 10:50:46;;;;;;;6.43;5.43;;;;;;;29.35;43.00;99940.17;128254;1095;24794;-76
2021/07/13 10:53:39;;;;;;;12.98;6.00;;;;;;;29.20;42.56;99941.29;128149;1098;25021;-77
2021/07/13 10:56:18;;;;;;;8.33;6.50;;;;;;;29.11;42.92;99945.81;127993;1098;22368;-76
2021/07/13 10:58:51;;;;;;;6.20;5.70;;;;;;;29.01;43.18;99925.85;127964;1098;22356;-75
2021/07/13 11:01:34;;;;;;;12.28;7.08;;;;;;;28.98;43.68;99928.34;128165;1098;24596;-73
2021/07/13 11:04:07;;;;;;;6.90;6.25;;;;;;;29.11;43.50;99924.05;128215;1097;22336;-74
2021/07/13 11:06:41;;;;;;;8.20;6.23;;;;;;;29.19;43.98;99929.61;128161;1097;22363;-75
2021/07/13 11:09:27;;;;;;;11.53;7.33;;;;;;;29.18;43.61;99919.02;128020;1098;24520;-74
2021/07/13 11:12:10;;;;;;;6.80;6.20;;;;;;;29.18;43.69;99922.53;127977;1098;22359;-75
2021/07/13 11:14:53;;;;;;;6.63;5.88;;;;;;;29.14;43.59;99923.45;128189;1098;22393;-74
2021/07/13 11:17:25;;;;;;;9.03;5.88;;;;;;;29.12;44.02;99914.78;128185;1097;22851;-82
2021/07/13 11:20:01;;;;;;;12.28;5.75;;;;;;;29.16;43.23;99916.61;127891;1098;24779;-79
2021/07/13 11:22:31;;;;;;;8.15;6.05;;;;;;;29.07;43.54;99907.53;128191;1096;22352;-76
2021/07/13 11:25:01;;;;;;;8.70;5.90;;;;;;;28.98;43.64;99901.95;127989;1098;22807;-75
2021/07/13 11:27:31;;;;;;;8.13;6.60;;;;;;;28.90;43.85;99913.53;128218;1098;23144;-75
2021/07/13 11:30:00;;;;;;;6.65;5.70;;;;;;;28.74;43.77;99904.84;128219;1095;22351;-75
2021/07/13 11:32:30;;;;;;;5.97;5.37;;;;;;;28.70;43.87;99903.04;128291;1095;22366;-77
2021/07/13 11:35:00;;;;;;;7.75;5.83;;;;;;;28.74;43.61;99901.33;128224;1095;22812;-77
2021/07/13 11:37:29;;;;;;;9.40;6.33;;;;;;;28.80;43.89;99900.13;128229;1095;22362;-75